Řízení letového provozu České republiky  
Aktualizace dat:  17.10.2017 23:55:12 UTC English version
   METEO Zobrazení stránky:  17.10.2017 23:58:08 UTC  
vysvětlivky
METAR EDDB 172350Z 27002KT 3100 BCFG MIFG BR FEW032 BKN250 11/10 Q1018 BECMG 0600 FG=
METAR EDDC 172350Z 16006KT CAVOK 11/10 Q1018=
METAR EDDE 172350Z 21009KT CAVOK 10/08 Q1018=
METAR EDDF 172350Z 08004KT 9999 MIFG NSC 10/09 Q1017 NOSIG=
METAR EDDM 172350Z VRB02KT 9999 R08L/0750VP2000U MIFG NSC 05/04 Q1019 NOSIG=
METAR EDDN 172350Z 11005KT 9000 MIFG NSC 08/08 Q1019=
METAR EDDP 172350Z 21004KT CAVOK 12/11 Q1018 NOSIG=
METAR EDDT 172350Z 14001KT 1300 R26R/1900N R26L/0800VP2000N BCFG MIFG SCT033 11/10 Q1018=
METAR EDQM 171750Z 00000KT CAVOK 14/07 Q1021=
METAR EPBY 172330Z 23004KT 4000 BR NSC 12/12 Q1017 =
METAR EPGD 172330Z 25010KT CAVOK 14/12 Q1015 =
METAR EPKK 172330Z VRB01KT 5000 MIFG BR NSC 08/08 Q1020 =
METAR EPKT 172330Z 23003KT 190V260 7000 NSC 14/11 Q1020 =
METAR EPLL 172330Z VRB02KT 9000 MIFG NSC 13/11 Q1019 =
METAR EPPO 172330Z 19001KT 1200 0300W R28/2000U PRFG BR NSC 08/08 Q1018 =
METAR EPRZ 172330Z 21006KT CAVOK 12/11 Q1021 =
METAR EPWA 172330Z 18003KT 7000 MIFG NSC 11/11 Q1018 BECMG 3000 BR=
METAR EPWR 172330Z 14004KT 120V210 CAVOK 09/08 Q1019 =
METAR LHBP 172330Z VRB01KT 5000 BR NSC 12/12 Q1023 NOSIG=
METAR LHSM 171545Z 08002KT CAVOK 18/14 Q1023 NOSIG=
METAR LKCV 172300Z 05003KT 360V070 CAVOK 11/10 Q1019 NOSIG=
METAR LKKB 172300Z 18003KT 120V240 5000 MIFG BR NSC 10/10 Q1020=
METAR LKKU NIL
METAR LKKV 172300Z 10003KT CAVOK 08/07 Q1020 RMK REG QNH 1017=
SPECI LKLN 172345Z AUTO 29001KT 4000 FEW008 07/07 Q1019=
METAR LKMT 172330Z 24007KT CAVOK 09/08 Q1020 NOSIG RMK REG QNH 1017=
METAR LKNA 172300Z 10008KT CAVOK 13/11 Q1021=
METAR LKPD 172300Z VRB01KT 9999 MIFG NSC 10/08 Q1020=
METAR LKPR 172330Z 00000KT 3000 0500SE R24/P2000N R30/0400N BCFG BR NSC 10/09 Q1019 NOSIG RMK REG QNH 1017=
METAR LKTB 172330Z 07008KT CAVOK 10/09 Q1020 NOSIG RMK REG QNH 1017=
METAR LKVO NIL
METAR LOWI 172320Z AUTO VRB01KT 9999 NCD 07/05 Q1021=
METAR LOWL 172320Z AUTO VRB01KT 0300 R26/0350N FG FEW002 BKN007 08/08 Q1019=
METAR LOWS 172320Z AUTO 17004KT 130V210 9999 SCT250 10/08 Q1019=
METAR LOWW 172320Z 14011KT CAVOK 15/12 Q1019 NOSIG=
METAR LZIB 172330Z 03006KT 9000 NSC 10/09 Q1021=
METAR LZKZ 172330Z 36003KT 4500 2000S BCFG FEW002 09/08 Q1023=
METAR LZPP 172330Z AUTO 34004KT 3900 BR NCD 09/09 Q1021=
METAR LZSL 172330Z 00000KT 0100 R36/0500N FG OVC001 07/06 Q1024=
METAR LZTT 172330Z VRB02KT CAVOK 03/02 Q1023=
METAR LZZI 172330Z 06001KT 1200 R06/0650N BR FEW002 07/07 Q1022=